sensor_id;sensor_type;location;lat;lon;timestamp;temperature;humidity
20171;DHT22;10245;51.344;6.620;2023-02-20T00:00:31;4.80;91.00
20171;DHT22;10245;51.344;6.620;2023-02-20T00:02:56;4.60;90.80
20171;DHT22;10245;51.344;6.620;2023-02-20T00:05:21;4.70;91.00
20171;DHT22;10245;51.344;6.620;2023-02-20T00:07:45;4.70;91.10
20171;DHT22;10245;51.344;6.620;2023-02-20T00:10:09;4.60;91.00
20171;DHT22;10245;51.344;6.620;2023-02-20T00:12:33;4.60;91.00
20171;DHT22;10245;51.344;6.620;2023-02-20T00:14:56;4.60;91.10
20171;DHT22;10245;51.344;6.620;2023-02-20T00:17:20;4.50;91.20
20171;DHT22;10245;51.344;6.620;2023-02-20T00:19:44;4.50;91.40
20171;DHT22;10245;51.344;6.620;2023-02-20T00:22:09;4.60;91.50
20171;DHT22;10245;51.344;6.620;2023-02-20T00:24:32;4.60;91.50
20171;DHT22;10245;51.344;6.620;2023-02-20T00:26:55;4.60;91.60
20171;DHT22;10245;51.344;6.620;2023-02-20T00:29:21;4.60;91.70
20171;DHT22;10245;51.344;6.620;2023-02-20T00:31:49;4.60;91.60
20171;DHT22;10245;51.344;6.620;2023-02-20T00:34:14;4.60;91.70
20171;DHT22;10245;51.344;6.620;2023-02-20T00:36:38;4.70;91.80
20171;DHT22;10245;51.344;6.620;2023-02-20T00:39:03;4.60;91.80
20171;DHT22;10245;51.344;6.620;2023-02-20T00:41:26;4.70;91.90
20171;DHT22;10245;51.344;6.620;2023-02-20T00:43:50;4.60;91.90
20171;DHT22;10245;51.344;6.620;2023-02-20T00:46:13;4.70;91.90
20171;DHT22;10245;51.344;6.620;2023-02-20T00:48:37;4.70;91.90
20171;DHT22;10245;51.344;6.620;2023-02-20T00:51:19;4.70;92.00
20171;DHT22;10245;51.344;6.620;2023-02-20T00:53:42;4.70;92.00
20171;DHT22;10245;51.344;6.620;2023-02-20T00:56:07;4.80;92.20
20171;DHT22;10245;51.344;6.620;2023-02-20T00:58:31;4.80;92.20
20171;DHT22;10245;51.344;6.620;2023-02-20T01:00:54;4.80;92.30
20171;DHT22;10245;51.344;6.620;2023-02-20T01:03:17;4.90;92.30
20171;DHT22;10245;51.344;6.620;2023-02-20T01:05:41;4.80;92.30
20171;DHT22;10245;51.344;6.620;2023-02-20T01:08:04;4.90;92.30
20171;DHT22;10245;51.344;6.620;2023-02-20T01:10:28;4.90;92.30
20171;DHT22;10245;51.344;6.620;2023-02-20T01:12:52;4.90;92.30
20171;DHT22;10245;51.344;6.620;2023-02-20T01:15:16;4.80;92.20
20171;DHT22;10245;51.344;6.620;2023-02-20T01:17:39;4.90;92.40
20171;DHT22;10245;51.344;6.620;2023-02-20T01:20:03;4.90;92.40
20171;DHT22;10245;51.344;6.620;2023-02-20T01:22:27;4.90;92.50
20171;DHT22;10245;51.344;6.620;2023-02-20T01:24:50;4.90;92.40
20171;DHT22;10245;51.344;6.620;2023-02-20T01:27:14;4.90;92.50
20171;DHT22;10245;51.344;6.620;2023-02-20T01:29:39;4.90;92.30
20171;DHT22;10245;51.344;6.620;2023-02-20T01:32:02;5.00;92.50
20171;DHT22;10245;51.344;6.620;2023-02-20T01:34:26;5.00;92.40
20171;DHT22;10245;51.344;6.620;2023-02-20T01:36:51;5.00;92.40
20171;DHT22;10245;51.344;6.620;2023-02-20T01:39:17;5.00;92.40
20171;DHT22;10245;51.344;6.620;2023-02-20T01:41:42;5.00;92.50
20171;DHT22;10245;51.344;6.620;2023-02-20T01:44:07;5.00;92.30
20171;DHT22;10245;51.344;6.620;2023-02-20T01:46:47;5.00;92.40
20171;DHT22;10245;51.344;6.620;2023-02-20T01:49:17;5.00;92.50
20171;DHT22;10245;51.344;6.620;2023-02-20T01:51:47;5.00;92.40
20171;DHT22;10245;51.344;6.620;2023-02-20T01:54:15;5.10;92.50
20171;DHT22;10245;51.344;6.620;2023-02-20T01:56:43;5.10;92.40
20171;DHT22;10245;51.344;6.620;2023-02-20T01:59:08;5.10;92.40
20171;DHT22;10245;51.344;6.620;2023-02-20T02:01:33;5.10;92.50
20171;DHT22;10245;51.344;6.620;2023-02-20T02:04:03;5.10;92.40
20171;DHT22;10245;51.344;6.620;2023-02-20T02:06:29;5.10;92.40
20171;DHT22;10245;51.344;6.620;2023-02-20T02:08:57;5.10;92.40
20171;DHT22;10245;51.344;6.620;2023-02-20T02:11:26;5.10;92.40
20171;DHT22;10245;51.344;6.620;2023-02-20T02:13:49;5.10;92.40
20171;DHT22;10245;51.344;6.620;2023-02-20T02:16:26;5.20;92.30
20171;DHT22;10245;51.344;6.620;2023-02-20T02:18:59;5.10;92.20
20171;DHT22;10245;51.344;6.620;2023-02-20T02:21:53;5.20;92.20
20171;DHT22;10245;51.344;6.620;2023-02-20T02:24:48;5.10;92.20
20171;DHT22;10245;51.344;6.620;2023-02-20T02:31:25;5.20;92.20
20171;DHT22;10245;51.344;6.620;2023-02-20T02:37:28;5.30;92.10
20171;DHT22;10245;51.344;6.620;2023-02-20T02:40:01;5.30;92.00
20171;DHT22;10245;51.344;6.620;2023-02-20T02:42:31;5.50;91.90
20171;DHT22;10245;51.344;6.620;2023-02-20T02:45:05;5.50;91.70
20171;DHT22;10245;51.344;6.620;2023-02-20T02:47:40;5.40;91.60
20171;DHT22;10245;51.344;6.620;2023-02-20T02:50:11;5.50;91.70
20171;DHT22;10245;51.344;6.620;2023-02-20T02:52:39;5.90;90.60
20171;DHT22;10245;51.344;6.620;2023-02-20T02:55:09;6.00;90.20
20171;DHT22;10245;51.344;6.620;2023-02-20T02:57:33;6.00;89.70
20171;DHT22;10245;51.344;6.620;2023-02-20T02:59:59;6.00;89.60
20171;DHT22;10245;51.344;6.620;2023-02-20T03:02:25;6.10;89.30
20171;DHT22;10245;51.344;6.620;2023-02-20T03:04:53;6.00;89.60
20171;DHT22;10245;51.344;6.620;2023-02-20T03:07:18;6.00;89.50
20171;DHT22;10245;51.344;6.620;2023-02-20T03:09:47;6.00;89.30
20171;DHT22;10245;51.344;6.620;2023-02-20T03:12:14;6.10;89.20
20171;DHT22;10245;51.344;6.620;2023-02-20T03:14:41;5.90;89.80
20171;DHT22;10245;51.344;6.620;2023-02-20T03:17:29;6.00;89.40
20171;DHT22;10245;51.344;6.620;2023-02-20T03:19:56;6.00;89.60
20171;DHT22;10245;51.344;6.620;2023-02-20T03:22:23;6.00;89.50
20171;DHT22;10245;51.344;6.620;2023-02-20T03:24:51;6.00;89.70
20171;DHT22;10245;51.344;6.620;2023-02-20T03:27:30;6.00;89.50
20171;DHT22;10245;51.344;6.620;2023-02-20T03:30:03;5.90;89.60
20171;DHT22;10245;51.344;6.620;2023-02-20T03:32:30;5.80;89.90
20171;DHT22;10245;51.344;6.620;2023-02-20T03:35:12;5.90;89.80
20171;DHT22;10245;51.344;6.620;2023-02-20T03:37:54;5.80;89.70
20171;DHT22;10245;51.344;6.620;2023-02-20T03:40:38;5.70;89.80
20171;DHT22;10245;51.344;6.620;2023-02-20T03:43:20;5.70;90.00
20171;DHT22;10245;51.344;6.620;2023-02-20T03:45:46;5.60;90.00
20171;DHT22;10245;51.344;6.620;2023-02-20T03:48:17;5.60;90.10
20171;DHT22;10245;51.344;6.620;2023-02-20T03:50:43;5.50;90.00
20171;DHT22;10245;51.344;6.620;2023-02-20T03:53:07;5.50;90.60
20171;DHT22;10245;51.344;6.620;2023-02-20T03:55:31;5.60;90.40
20171;DHT22;10245;51.344;6.620;2023-02-20T03:58:03;5.50;90.30
20171;DHT22;10245;51.344;6.620;2023-02-20T04:00:32;5.50;90.30
20171;DHT22;10245;51.344;6.620;2023-02-20T04:03:05;5.50;89.90
20171;DHT22;10245;51.344;6.620;2023-02-20T04:05:37;5.50;90.10
20171;DHT22;10245;51.344;6.620;2023-02-20T04:08:05;5.50;90.20
20171;DHT22;10245;51.344;6.620;2023-02-20T04:10:34;5.50;90.30
20171;DHT22;10245;51.344;6.620;2023-02-20T04:13:00;5.40;90.40
20171;DHT22;10245;51.344;6.620;2023-02-20T04:15:26;5.50;90.30
20171;DHT22;10245;51.344;6.620;2023-02-20T04:17:54;5.60;90.20
20171;DHT22;10245;51.344;6.620;2023-02-20T04:20:20;5.50;90.00
20171;DHT22;10245;51.344;6.620;2023-02-20T04:22:56;5.40;90.10
20171;DHT22;10245;51.344;6.620;2023-02-20T04:25:36;5.40;90.20
20171;DHT22;10245;51.344;6.620;2023-02-20T04:28:05;5.40;90.50
20171;DHT22;10245;51.344;6.620;2023-02-20T04:30:39;5.40;90.30
20171;DHT22;10245;51.344;6.620;2023-02-20T04:33:03;5.40;90.50
20171;DHT22;10245;51.344;6.620;2023-02-20T04:35:27;5.30;90.50
20171;DHT22;10245;51.344;6.620;2023-02-20T04:37:51;5.30;90.60
20171;DHT22;10245;51.344;6.620;2023-02-20T04:40:19;5.30;90.60
20171;DHT22;10245;51.344;6.620;2023-02-20T04:42:43;5.40;90.70
20171;DHT22;10245;51.344;6.620;2023-02-20T04:45:08;5.40;90.60
20171;DHT22;10245;51.344;6.620;2023-02-20T04:47:32;5.40;90.40
20171;DHT22;10245;51.344;6.620;2023-02-20T04:49:55;5.40;90.50
20171;DHT22;10245;51.344;6.620;2023-02-20T04:52:19;5.40;90.60
20171;DHT22;10245;51.344;6.620;2023-02-20T04:54:43;5.40;90.90
20171;DHT22;10245;51.344;6.620;2023-02-20T04:57:08;5.50;90.50
20171;DHT22;10245;51.344;6.620;2023-02-20T04:59:31;5.40;90.20
20171;DHT22;10245;51.344;6.620;2023-02-20T05:01:56;5.50;90.70
20171;DHT22;10245;51.344;6.620;2023-02-20T05:04:22;5.50;90.20
20171;DHT22;10245;51.344;6.620;2023-02-20T05:06:47;5.60;90.20
20171;DHT22;10245;51.344;6.620;2023-02-20T05:09:11;5.60;90.40
20171;DHT22;10245;51.344;6.620;2023-02-20T05:11:35;5.70;90.10
20171;DHT22;10245;51.344;6.620;2023-02-20T05:13:59;5.80;89.90
20171;DHT22;10245;51.344;6.620;2023-02-20T05:16:23;5.80;89.90
20171;DHT22;10245;51.344;6.620;2023-02-20T05:18:48;5.90;89.50
20171;DHT22;10245;51.344;6.620;2023-02-20T05:21:13;5.80;89.70
20171;DHT22;10245;51.344;6.620;2023-02-20T05:23:54;5.80;89.80
20171;DHT22;10245;51.344;6.620;2023-02-20T05:26:18;5.90;89.70
20171;DHT22;10245;51.344;6.620;2023-02-20T05:28:43;5.80;89.80
20171;DHT22;10245;51.344;6.620;2023-02-20T05:31:06;5.90;89.60
20171;DHT22;10245;51.344;6.620;2023-02-20T05:33:30;5.90;89.80
20171;DHT22;10245;51.344;6.620;2023-02-20T05:35:55;5.80;90.00
20171;DHT22;10245;51.344;6.620;2023-02-20T05:38:18;5.90;89.90
20171;DHT22;10245;51.344;6.620;2023-02-20T05:40:42;5.80;89.90
20171;DHT22;10245;51.344;6.620;2023-02-20T05:43:05;5.80;89.90
20171;DHT22;10245;51.344;6.620;2023-02-20T05:45:29;5.80;90.00
20171;DHT22;10245;51.344;6.620;2023-02-20T05:47:52;5.80;89.90
20171;DHT22;10245;51.344;6.620;2023-02-20T05:50:16;5.80;89.80
20171;DHT22;10245;51.344;6.620;2023-02-20T05:52:41;5.80;89.80
20171;DHT22;10245;51.344;6.620;2023-02-20T05:55:06;5.80;89.80
20171;DHT22;10245;51.344;6.620;2023-02-20T05:57:30;5.80;90.00
20171;DHT22;10245;51.344;6.620;2023-02-20T05:59:53;5.80;89.90
20171;DHT22;10245;51.344;6.620;2023-02-20T06:02:17;5.80;89.90
20171;DHT22;10245;51.344;6.620;2023-02-20T06:04:40;5.80;89.90
20171;DHT22;10245;51.344;6.620;2023-02-20T06:07:03;5.80;90.00
20171;DHT22;10245;51.344;6.620;2023-02-20T06:09:32;5.80;89.80
20171;DHT22;10245;51.344;6.620;2023-02-20T06:11:56;5.80;90.00
20171;DHT22;10245;51.344;6.620;2023-02-20T06:14:22;5.90;89.90
20171;DHT22;10245;51.344;6.620;2023-02-20T06:16:46;5.90;89.60
20171;DHT22;10245;51.344;6.620;2023-02-20T06:19:10;5.90;89.80
20171;DHT22;10245;51.344;6.620;2023-02-20T06:21:34;5.90;89.80
20171;DHT22;10245;51.344;6.620;2023-02-20T06:23:58;5.90;89.60
20171;DHT22;10245;51.344;6.620;2023-02-20T06:26:23;5.90;89.30
20171;DHT22;10245;51.344;6.620;2023-02-20T06:28:46;5.90;89.30
20171;DHT22;10245;51.344;6.620;2023-02-20T06:31:11;5.90;89.40
20171;DHT22;10245;51.344;6.620;2023-02-20T06:33:35;5.90;89.60
20171;DHT22;10245;51.344;6.620;2023-02-20T06:35:59;5.90;89.50
20171;DHT22;10245;51.344;6.620;2023-02-20T06:38:23;5.90;89.50
20171;DHT22;10245;51.344;6.620;2023-02-20T06:40:46;5.80;89.60
20171;DHT22;10245;51.344;6.620;2023-02-20T06:43:12;5.80;89.60
20171;DHT22;10245;51.344;6.620;2023-02-20T06:45:35;5.90;89.50
20171;DHT22;10245;51.344;6.620;2023-02-20T06:47:58;5.90;89.50
20171;DHT22;10245;51.344;6.620;2023-02-20T06:50:22;5.90;89.40
20171;DHT22;10245;51.344;6.620;2023-02-20T06:52:45;5.90;89.40
20171;DHT22;10245;51.344;6.620;2023-02-20T06:55:08;5.90;89.30
20171;DHT22;10245;51.344;6.620;2023-02-20T06:57:32;5.90;89.30
20171;DHT22;10245;51.344;6.620;2023-02-20T06:59:56;5.90;89.40
20171;DHT22;10245;51.344;6.620;2023-02-20T07:02:20;5.90;89.50
20171;DHT22;10245;51.344;6.620;2023-02-20T07:04:46;5.90;89.30
20171;DHT22;10245;51.344;6.620;2023-02-20T07:07:12;5.90;89.40
20171;DHT22;10245;51.344;6.620;2023-02-20T07:09:35;5.90;89.30
20171;DHT22;10245;51.344;6.620;2023-02-20T07:11:58;5.90;89.20
20171;DHT22;10245;51.344;6.620;2023-02-20T07:14:22;5.90;89.30
20171;DHT22;10245;51.344;6.620;2023-02-20T07:16:47;5.90;89.50
20171;DHT22;10245;51.344;6.620;2023-02-20T07:19:10;5.90;89.30
20171;DHT22;10245;51.344;6.620;2023-02-20T07:21:34;6.00;89.00
20171;DHT22;10245;51.344;6.620;2023-02-20T07:23:57;6.00;88.90
20171;DHT22;10245;51.344;6.620;2023-02-20T07:26:22;6.00;88.90
20171;DHT22;10245;51.344;6.620;2023-02-20T07:28:47;6.10;88.80
20171;DHT22;10245;51.344;6.620;2023-02-20T07:31:10;6.10;88.70
20171;DHT22;10245;51.344;6.620;2023-02-20T07:33:35;6.10;88.70
20171;DHT22;10245;51.344;6.620;2023-02-20T07:35:58;6.10;88.60
20171;DHT22;10245;51.344;6.620;2023-02-20T07:38:22;6.20;88.50
20171;DHT22;10245;51.344;6.620;2023-02-20T07:40:45;6.20;88.50
20171;DHT22;10245;51.344;6.620;2023-02-20T07:43:09;6.20;88.40
20171;DHT22;10245;51.344;6.620;2023-02-20T07:45:32;6.20;88.30
20171;DHT22;10245;51.344;6.620;2023-02-20T07:47:56;6.20;88.10
20171;DHT22;10245;51.344;6.620;2023-02-20T07:50:20;6.30;88.20
20171;DHT22;10245;51.344;6.620;2023-02-20T07:52:44;6.30;88.20
20171;DHT22;10245;51.344;6.620;2023-02-20T07:55:08;6.40;88.40
20171;DHT22;10245;51.344;6.620;2023-02-20T07:57:34;6.40;88.10
20171;DHT22;10245;51.344;6.620;2023-02-20T07:59:58;6.40;87.90
20171;DHT22;10245;51.344;6.620;2023-02-20T08:02:21;6.50;87.80
20171;DHT22;10245;51.344;6.620;2023-02-20T08:04:45;6.50;88.00
20171;DHT22;10245;51.344;6.620;2023-02-20T08:07:10;6.50;87.70
20171;DHT22;10245;51.344;6.620;2023-02-20T08:09:33;6.50;87.60
20171;DHT22;10245;51.344;6.620;2023-02-20T08:11:56;6.50;87.60
20171;DHT22;10245;51.344;6.620;2023-02-20T08:14:20;6.50;87.60
20171;DHT22;10245;51.344;6.620;2023-02-20T08:16:43;6.60;87.80
20171;DHT22;10245;51.344;6.620;2023-02-20T08:19:06;6.60;87.40
20171;DHT22;10245;51.344;6.620;2023-02-20T08:21:30;6.60;87.30
20171;DHT22;10245;51.344;6.620;2023-02-20T08:23:55;6.60;87.30
20171;DHT22;10245;51.344;6.620;2023-02-20T08:26:18;6.70;87.30
20171;DHT22;10245;51.344;6.620;2023-02-20T08:28:42;6.70;87.20
20171;DHT22;10245;51.344;6.620;2023-02-20T08:31:05;6.80;87.40
20171;DHT22;10245;51.344;6.620;2023-02-20T08:33:28;6.70;87.30
20171;DHT22;10245;51.344;6.620;2023-02-20T08:35:52;6.80;86.90
20171;DHT22;10245;51.344;6.620;2023-02-20T08:38:25;6.80;87.00
20171;DHT22;10245;51.344;6.620;2023-02-20T08:40:51;6.90;86.80
20171;DHT22;10245;51.344;6.620;2023-02-20T08:43:15;6.90;86.60
20171;DHT22;10245;51.344;6.620;2023-02-20T08:45:38;6.80;86.40
20171;DHT22;10245;51.344;6.620;2023-02-20T08:48:02;6.90;86.80
20171;DHT22;10245;51.344;6.620;2023-02-20T08:50:25;6.90;86.90
20171;DHT22;10245;51.344;6.620;2023-02-20T08:52:49;6.90;86.60
20171;DHT22;10245;51.344;6.620;2023-02-20T08:55:13;7.00;86.40
20171;DHT22;10245;51.344;6.620;2023-02-20T08:57:37;7.00;86.60
20171;DHT22;10245;51.344;6.620;2023-02-20T09:00:05;7.00;86.30
20171;DHT22;10245;51.344;6.620;2023-02-20T09:02:29;7.00;86.50
20171;DHT22;10245;51.344;6.620;2023-02-20T09:04:52;7.00;86.40
20171;DHT22;10245;51.344;6.620;2023-02-20T09:07:16;7.00;86.70
20171;DHT22;10245;51.344;6.620;2023-02-20T09:09:40;7.00;86.30
20171;DHT22;10245;51.344;6.620;2023-02-20T09:12:04;7.00;86.40
20171;DHT22;10245;51.344;6.620;2023-02-20T09:14:30;6.90;86.20
20171;DHT22;10245;51.344;6.620;2023-02-20T09:16:53;7.00;86.40
20171;DHT22;10245;51.344;6.620;2023-02-20T09:19:16;7.00;86.30
20171;DHT22;10245;51.344;6.620;2023-02-20T09:21:44;7.00;86.30
20171;DHT22;10245;51.344;6.620;2023-02-20T09:24:08;7.00;86.20
20171;DHT22;10245;51.344;6.620;2023-02-20T09:26:31;7.00;86.50
20171;DHT22;10245;51.344;6.620;2023-02-20T09:28:55;7.10;86.50
20171;DHT22;10245;51.344;6.620;2023-02-20T09:31:20;7.00;86.30
20171;DHT22;10245;51.344;6.620;2023-02-20T09:33:44;7.20;86.30
20171;DHT22;10245;51.344;6.620;2023-02-20T09:36:12;7.10;86.10
20171;DHT22;10245;51.344;6.620;2023-02-20T09:38:36;7.20;86.30
20171;DHT22;10245;51.344;6.620;2023-02-20T09:40:59;7.30;86.10
20171;DHT22;10245;51.344;6.620;2023-02-20T09:43:32;7.20;85.90
20171;DHT22;10245;51.344;6.620;2023-02-20T09:46:05;7.30;86.00
20171;DHT22;10245;51.344;6.620;2023-02-20T09:48:42;7.20;86.00
20171;DHT22;10245;51.344;6.620;2023-02-20T09:51:14;7.30;85.90
20171;DHT22;10245;51.344;6.620;2023-02-20T09:53:45;7.40;85.90
20171;DHT22;10245;51.344;6.620;2023-02-20T09:56:17;7.30;86.00
20171;DHT22;10245;51.344;6.620;2023-02-20T09:58:44;7.50;85.70
20171;DHT22;10245;51.344;6.620;2023-02-20T10:01:12;7.40;85.70
20171;DHT22;10245;51.344;6.620;2023-02-20T10:03:50;7.40;85.60
20171;DHT22;10245;51.344;6.620;2023-02-20T10:06:17;7.40;85.70
20171;DHT22;10245;51.344;6.620;2023-02-20T10:08:42;7.50;85.50
20171;DHT22;10245;51.344;6.620;2023-02-20T10:11:07;7.40;85.60
20171;DHT22;10245;51.344;6.620;2023-02-20T10:13:45;7.50;85.90
20171;DHT22;10245;51.344;6.620;2023-02-20T10:16:29;7.50;86.00
20171;DHT22;10245;51.344;6.620;2023-02-20T10:19:06;7.50;85.70
20171;DHT22;10245;51.344;6.620;2023-02-20T10:21:48;7.50;85.80
20171;DHT22;10245;51.344;6.620;2023-02-20T10:24:34;7.50;85.70
20171;DHT22;10245;51.344;6.620;2023-02-20T10:27:24;7.50;85.80
20171;DHT22;10245;51.344;6.620;2023-02-20T10:29:52;7.50;85.80
20171;DHT22;10245;51.344;6.620;2023-02-20T10:32:20;7.60;85.50
20171;DHT22;10245;51.344;6.620;2023-02-20T10:34:52;7.50;85.50
20171;DHT22;10245;51.344;6.620;2023-02-20T10:37:21;7.60;85.70
20171;DHT22;10245;51.344;6.620;2023-02-20T10:40:01;7.60;85.80
20171;DHT22;10245;51.344;6.620;2023-02-20T10:42:31;7.70;85.50
20171;DHT22;10245;51.344;6.620;2023-02-20T10:45:04;7.70;85.60
20171;DHT22;10245;51.344;6.620;2023-02-20T10:47:33;7.70;85.70
20171;DHT22;10245;51.344;6.620;2023-02-20T10:50:08;7.70;85.70
20171;DHT22;10245;51.344;6.620;2023-02-20T10:52:38;7.70;85.40
20171;DHT22;10245;51.344;6.620;2023-02-20T10:55:10;7.70;85.90
20171;DHT22;10245;51.344;6.620;2023-02-20T10:57:37;7.80;85.50
20171;DHT22;10245;51.344;6.620;2023-02-20T11:00:08;7.80;85.60
20171;DHT22;10245;51.344;6.620;2023-02-20T11:02:38;7.70;85.30
20171;DHT22;10245;51.344;6.620;2023-02-20T11:05:08;7.60;85.60
20171;DHT22;10245;51.344;6.620;2023-02-20T11:07:33;7.70;85.60
20171;DHT22;10245;51.344;6.620;2023-02-20T11:09:56;7.70;85.30
20171;DHT22;10245;51.344;6.620;2023-02-20T11:12:25;7.80;85.50
20171;DHT22;10245;51.344;6.620;2023-02-20T11:14:55;7.80;85.40
20171;DHT22;10245;51.344;6.620;2023-02-20T11:17:21;7.90;85.40
20171;DHT22;10245;51.344;6.620;2023-02-20T11:19:49;7.90;85.30
20171;DHT22;10245;51.344;6.620;2023-02-20T11:22:17;7.90;85.30
20171;DHT22;10245;51.344;6.620;2023-02-20T11:24:42;7.90;85.60
20171;DHT22;10245;51.344;6.620;2023-02-20T11:27:10;7.90;85.10
20171;DHT22;10245;51.344;6.620;2023-02-20T11:29:48;7.90;85.20
20171;DHT22;10245;51.344;6.620;2023-02-20T11:32:34;8.00;85.10
20171;DHT22;10245;51.344;6.620;2023-02-20T11:35:03;8.00;85.10
20171;DHT22;10245;51.344;6.620;2023-02-20T11:37:35;8.00;85.50
20171;DHT22;10245;51.344;6.620;2023-02-20T11:40:16;8.00;85.20
20171;DHT22;10245;51.344;6.620;2023-02-20T11:42:46;8.00;85.20
20171;DHT22;10245;51.344;6.620;2023-02-20T11:45:13;8.00;84.80
20171;DHT22;10245;51.344;6.620;2023-02-20T11:47:37;8.00;85.20
20171;DHT22;10245;51.344;6.620;2023-02-20T11:50:18;8.00;85.30
20171;DHT22;10245;51.344;6.620;2023-02-20T11:52:58;8.00;85.70
20171;DHT22;10245;51.344;6.620;2023-02-20T11:55:26;8.00;85.50
20171;DHT22;10245;51.344;6.620;2023-02-20T11:57:50;8.00;85.10
20171;DHT22;10245;51.344;6.620;2023-02-20T12:00:16;8.00;85.20
20171;DHT22;10245;51.344;6.620;2023-02-20T12:02:48;8.00;85.30
20171;DHT22;10245;51.344;6.620;2023-02-20T12:05:14;7.90;85.50
20171;DHT22;10245;51.344;6.620;2023-02-20T12:07:40;8.00;85.40
20171;DHT22;10245;51.344;6.620;2023-02-20T12:10:26;8.00;85.30
20171;DHT22;10245;51.344;6.620;2023-02-20T12:12:53;8.00;85.50
20171;DHT22;10245;51.344;6.620;2023-02-20T12:15:18;8.10;85.50
20171;DHT22;10245;51.344;6.620;2023-02-20T12:20:48;7.90;85.50
20171;DHT22;10245;51.344;6.620;2023-02-20T12:23:23;8.00;85.40
20171;DHT22;10245;51.344;6.620;2023-02-20T12:25:58;8.00;85.90
20171;DHT22;10245;51.344;6.620;2023-02-20T12:28:34;8.00;85.60
20171;DHT22;10245;51.344;6.620;2023-02-20T12:31:10;8.00;85.90
20171;DHT22;10245;51.344;6.620;2023-02-20T12:33:55;8.00;85.60
20171;DHT22;10245;51.344;6.620;2023-02-20T12:36:30;8.00;85.60
20171;DHT22;10245;51.344;6.620;2023-02-20T12:38:58;8.10;85.60
20171;DHT22;10245;51.344;6.620;2023-02-20T12:41:45;8.00;85.40
20171;DHT22;10245;51.344;6.620;2023-02-20T12:44:27;8.10;85.70
20171;DHT22;10245;51.344;6.620;2023-02-20T12:47:03;8.10;85.70
20171;DHT22;10245;51.344;6.620;2023-02-20T12:55:25;8.10;85.90
20171;DHT22;10245;51.344;6.620;2023-02-20T12:58:05;8.10;86.10
20171;DHT22;10245;51.344;6.620;2023-02-20T13:00:37;8.10;85.90
20171;DHT22;10245;51.344;6.620;2023-02-20T13:03:07;8.10;86.10
20171;DHT22;10245;51.344;6.620;2023-02-20T13:05:34;8.10;85.90
20171;DHT22;10245;51.344;6.620;2023-02-20T13:08:02;8.20;86.00
20171;DHT22;10245;51.344;6.620;2023-02-20T13:10:32;8.10;86.10
20171;DHT22;10245;51.344;6.620;2023-02-20T13:12:57;8.10;86.30
20171;DHT22;10245;51.344;6.620;2023-02-20T13:15:31;8.20;86.20
20171;DHT22;10245;51.344;6.620;2023-02-20T13:18:01;8.20;86.30
20171;DHT22;10245;51.344;6.620;2023-02-20T13:20:31;8.20;86.20
20171;DHT22;10245;51.344;6.620;2023-02-20T13:23:01;8.20;86.10
20171;DHT22;10245;51.344;6.620;2023-02-20T13:25:38;8.30;86.20
20171;DHT22;10245;51.344;6.620;2023-02-20T13:28:20;8.20;86.20
20171;DHT22;10245;51.344;6.620;2023-02-20T13:31:05;8.30;86.40
20171;DHT22;10245;51.344;6.620;2023-02-20T13:33:31;8.20;86.40
20171;DHT22;10245;51.344;6.620;2023-02-20T13:35:57;8.20;86.50
20171;DHT22;10245;51.344;6.620;2023-02-20T13:38:22;8.30;86.50
20171;DHT22;10245;51.344;6.620;2023-02-20T13:41:02;8.30;86.60
20171;DHT22;10245;51.344;6.620;2023-02-20T13:43:30;8.30;86.60
20171;DHT22;10245;51.344;6.620;2023-02-20T13:46:14;8.20;86.40
20171;DHT22;10245;51.344;6.620;2023-02-20T13:48:44;8.20;86.80
20171;DHT22;10245;51.344;6.620;2023-02-20T13:51:33;8.20;86.50
20171;DHT22;10245;51.344;6.620;2023-02-20T13:54:10;8.20;86.70
20171;DHT22;10245;51.344;6.620;2023-02-20T13:56:52;8.30;86.70
20171;DHT22;10245;51.344;6.620;2023-02-20T13:59:21;8.30;86.90
20171;DHT22;10245;51.344;6.620;2023-02-20T14:02:02;8.40;86.80
20171;DHT22;10245;51.344;6.620;2023-02-20T14:04:27;8.40;86.70
20171;DHT22;10245;51.344;6.620;2023-02-20T14:06:52;8.30;86.70
20171;DHT22;10245;51.344;6.620;2023-02-20T14:09:22;8.20;86.70
20171;DHT22;10245;51.344;6.620;2023-02-20T14:11:48;8.30;86.70
20171;DHT22;10245;51.344;6.620;2023-02-20T14:14:29;8.30;86.80
20171;DHT22;10245;51.344;6.620;2023-02-20T14:17:06;8.40;86.60
20171;DHT22;10245;51.344;6.620;2023-02-20T14:19:30;8.40;86.90
20171;DHT22;10245;51.344;6.620;2023-02-20T14:21:54;8.40;87.00
20171;DHT22;10245;51.344;6.620;2023-02-20T14:24:19;8.40;86.80
20171;DHT22;10245;51.344;6.620;2023-02-20T14:26:44;8.40;87.00
20171;DHT22;10245;51.344;6.620;2023-02-20T14:29:20;8.40;86.80
20171;DHT22;10245;51.344;6.620;2023-02-20T14:31:49;8.40;86.80
20171;DHT22;10245;51.344;6.620;2023-02-20T14:34:18;8.40;86.90
20171;DHT22;10245;51.344;6.620;2023-02-20T14:36:55;8.40;87.00
20171;DHT22;10245;51.344;6.620;2023-02-20T14:39:32;8.40;87.10
20171;DHT22;10245;51.344;6.620;2023-02-20T14:42:03;8.40;87.00
20171;DHT22;10245;51.344;6.620;2023-02-20T14:44:27;8.40;87.20
20171;DHT22;10245;51.344;6.620;2023-02-20T14:46:55;8.40;87.10
20171;DHT22;10245;51.344;6.620;2023-02-20T14:49:29;8.50;87.00
20171;DHT22;10245;51.344;6.620;2023-02-20T14:52:04;8.50;87.00
20171;DHT22;10245;51.344;6.620;2023-02-20T14:54:33;8.50;87.00
20171;DHT22;10245;51.344;6.620;2023-02-20T14:56:57;8.50;86.80
20171;DHT22;10245;51.344;6.620;2023-02-20T14:59:24;8.50;86.80
20171;DHT22;10245;51.344;6.620;2023-02-20T15:01:48;8.50;86.90
20171;DHT22;10245;51.344;6.620;2023-02-20T15:04:15;8.50;86.60
20171;DHT22;10245;51.344;6.620;2023-02-20T15:06:41;8.50;86.90
20171;DHT22;10245;51.344;6.620;2023-02-20T15:09:06;8.50;87.00
20171;DHT22;10245;51.344;6.620;2023-02-20T15:11:48;8.50;86.90
20171;DHT22;10245;51.344;6.620;2023-02-20T15:14:17;8.50;86.80
20171;DHT22;10245;51.344;6.620;2023-02-20T15:16:43;8.50;86.60
20171;DHT22;10245;51.344;6.620;2023-02-20T15:19:20;8.50;86.70
20171;DHT22;10245;51.344;6.620;2023-02-20T15:21:56;8.50;86.70
20171;DHT22;10245;51.344;6.620;2023-02-20T15:24:34;8.50;86.80
20171;DHT22;10245;51.344;6.620;2023-02-20T15:27:14;8.50;86.70
20171;DHT22;10245;51.344;6.620;2023-02-20T15:29:39;8.50;86.60
20171;DHT22;10245;51.344;6.620;2023-02-20T15:32:04;8.50;86.60
20171;DHT22;10245;51.344;6.620;2023-02-20T15:34:31;8.50;86.70
20171;DHT22;10245;51.344;6.620;2023-02-20T15:36:56;8.50;86.70
20171;DHT22;10245;51.344;6.620;2023-02-20T15:39:28;8.50;86.60
20171;DHT22;10245;51.344;6.620;2023-02-20T15:41:51;8.50;86.50
20171;DHT22;10245;51.344;6.620;2023-02-20T15:44:16;8.50;86.50
20171;DHT22;10245;51.344;6.620;2023-02-20T15:46:39;8.50;86.70
20171;DHT22;10245;51.344;6.620;2023-02-20T15:49:03;8.60;86.70
20171;DHT22;10245;51.344;6.620;2023-02-20T15:51:28;8.60;86.50
20171;DHT22;10245;51.344;6.620;2023-02-20T15:53:55;8.50;86.70
20171;DHT22;10245;51.344;6.620;2023-02-20T15:56:21;8.60;86.30
20171;DHT22;10245;51.344;6.620;2023-02-20T15:58:44;8.60;86.50
20171;DHT22;10245;51.344;6.620;2023-02-20T16:01:09;8.50;86.40
20171;DHT22;10245;51.344;6.620;2023-02-20T16:03:33;8.50;86.60
20171;DHT22;10245;51.344;6.620;2023-02-20T16:06:12;8.50;86.60